MMD248 EKSB-EKRK
Flight info
| Callsign | MMD248 |
|---|---|
| Flight time | 0h 25m |
| Altitude | 19000 |
| Route | TALSA P729 KOR |
| Aircraft | TBM9/L-SDFGRWY/S |
Departure
| Time | 2026-05-08 18:48 |
|---|---|
| Airport | Sønderborg Airport (EKSB) |
Arrival
| Time | 2026-05-08 19:14 |
|---|---|
| Airport | Copenhagen Roskilde Airport (EKRK) |
| Time | Latitude | Longitude | Altitude | Speed | Heading |
|---|---|---|---|---|---|
| 2026-05-08 18:30 | 54.96378 | 9.78750 | 19 ft | 0 kts | 241° |
| 2026-05-08 18:43 | 54.96375 | 9.78746 | 19 ft | 4 kts | 205° |
| 2026-05-08 18:44 | 54.96373 | 9.78802 | 19 ft | 5 kts | 65° |
| 2026-05-08 18:44 | 54.96382 | 9.78828 | 19 ft | 12 kts | 52° |
| 2026-05-08 18:44 | 54.96451 | 9.78976 | 19 ft | 14 kts | 48° |
| 2026-05-08 18:44 | 54.96481 | 9.79034 | 20 ft | 3 kts | 48° |
| 2026-05-08 18:45 | 54.96502 | 9.79054 | 20 ft | 4 kts | 3° |
| 2026-05-08 18:45 | 54.96541 | 9.79018 | 19 ft | 9 kts | 316° |
| 2026-05-08 18:45 | 54.96594 | 9.78935 | 18 ft | 12 kts | 319° |
| 2026-05-08 18:45 | 54.96665 | 9.78837 | 18 ft | 14 kts | 319° |
| 2026-05-08 18:46 | 54.96748 | 9.78711 | 17 ft | 17 kts | 317° |
| 2026-05-08 18:46 | 54.96800 | 9.78637 | 18 ft | 7 kts | 322° |
| 2026-05-08 18:46 | 54.96848 | 9.78569 | 18 ft | 9 kts | 323° |
| 2026-05-08 18:46 | 54.96890 | 9.78543 | 17 ft | 4 kts | 319° |
| 2026-05-08 18:47 | 54.96882 | 9.78524 | 18 ft | 3 kts | 155° |
| 2026-05-08 18:47 | 54.96856 | 9.78555 | 18 ft | 5 kts | 144° |
| 2026-05-08 18:47 | 54.96838 | 9.78582 | 18 ft | 3 kts | 139° |
| 2026-05-08 18:47 | 54.96712 | 9.78772 | 17 ft | 57 kts | 140° |
| 2026-05-08 18:48 | 54.96263 | 9.79436 | 39 ft | 108 kts | 140° |
| 2026-05-08 18:48 | 54.95619 | 9.80308 | 353 ft | 122 kts | 145° |
| 2026-05-08 18:48 | 54.94926 | 9.81131 | 824 ft | 124 kts | 138° |
| 2026-05-08 18:48 | 54.94277 | 9.82087 | 1386 ft | 124 kts | 135° |
| 2026-05-08 18:49 | 54.93630 | 9.83048 | 1943 ft | 123 kts | 136° |
| 2026-05-08 18:49 | 54.93205 | 9.84276 | 2461 ft | 123 kts | 91° |
| 2026-05-08 18:49 | 54.93665 | 9.85518 | 3001 ft | 135 kts | 35° |
| 2026-05-08 18:49 | 54.94518 | 9.86238 | 3555 ft | 136 kts | 32° |
| 2026-05-08 18:50 | 54.95375 | 9.86973 | 4102 ft | 138 kts | 32° |
| 2026-05-08 18:50 | 54.96245 | 9.87718 | 4635 ft | 141 kts | 32° |
| 2026-05-08 18:50 | 54.96873 | 9.88902 | 5160 ft | 133 kts | 73° |
| 2026-05-08 18:50 | 54.97201 | 9.90415 | 5697 ft | 134 kts | 71° |
| 2026-05-08 18:51 | 54.97583 | 9.91888 | 6260 ft | 133 kts | 69° |
| 2026-05-08 18:51 | 54.97981 | 9.93348 | 6799 ft | 134 kts | 69° |
| 2026-05-08 18:51 | 54.98387 | 9.94811 | 7302 ft | 134 kts | 68° |
| 2026-05-08 18:51 | 54.98797 | 9.96277 | 7804 ft | 136 kts | 68° |
| 2026-05-08 18:52 | 54.99221 | 9.97807 | 8211 ft | 144 kts | 68° |
| 2026-05-08 18:52 | 54.99670 | 9.99426 | 8634 ft | 152 kts | 67° |
| 2026-05-08 18:52 | 55.00145 | 10.01119 | 9062 ft | 159 kts | 67° |
| 2026-05-08 18:52 | 55.00632 | 10.02865 | 9474 ft | 166 kts | 66° |
| 2026-05-08 18:53 | 55.01157 | 10.04753 | 9781 ft | 179 kts | 66° |
| 2026-05-08 18:53 | 55.01716 | 10.06766 | 10092 ft | 189 kts | 66° |
| 2026-05-08 18:53 | 55.02302 | 10.08867 | 10377 ft | 196 kts | 66° |
| 2026-05-08 18:53 | 55.02908 | 10.11044 | 10658 ft | 202 kts | 66° |
| 2026-05-08 18:54 | 55.03530 | 10.13278 | 10940 ft | 207 kts | 66° |
| 2026-05-08 18:54 | 55.04166 | 10.15560 | 11220 ft | 211 kts | 65° |
| 2026-05-08 18:54 | 55.04811 | 10.17879 | 11498 ft | 214 kts | 65° |
| 2026-05-08 18:54 | 55.05462 | 10.20229 | 11780 ft | 216 kts | 65° |
| 2026-05-08 18:55 | 55.06777 | 10.24965 | 12438 ft | 217 kts | 65° |
| 2026-05-08 18:55 | 55.07433 | 10.27333 | 12778 ft | 217 kts | 65° |
| 2026-05-08 18:55 | 55.08090 | 10.29707 | 13119 ft | 218 kts | 65° |
| 2026-05-08 18:56 | 55.08748 | 10.32088 | 13463 ft | 218 kts | 65° |
| 2026-05-08 18:56 | 55.09409 | 10.34482 | 13815 ft | 219 kts | 65° |
| 2026-05-08 18:56 | 55.10071 | 10.36883 | 14153 ft | 220 kts | 65° |
| 2026-05-08 18:56 | 55.10737 | 10.39299 | 14467 ft | 221 kts | 65° |
| 2026-05-08 18:57 | 55.11403 | 10.41720 | 14782 ft | 222 kts | 65° |
| 2026-05-08 18:57 | 55.11847 | 10.43338 | 14999 ft | 223 kts | 65° |
| 2026-05-08 18:57 | 55.12730 | 10.46583 | 15421 ft | 224 kts | 64° |
| 2026-05-08 18:57 | 55.13404 | 10.49040 | 15750 ft | 225 kts | 64° |
| 2026-05-08 18:58 | 55.14082 | 10.51509 | 16079 ft | 226 kts | 64° |
| 2026-05-08 18:58 | 55.14693 | 10.54043 | 16410 ft | 226 kts | 65° |
| 2026-05-08 18:58 | 55.15380 | 10.56521 | 16749 ft | 227 kts | 65° |
| 2026-05-08 18:58 | 55.16031 | 10.59057 | 17091 ft | 229 kts | 65° |
| 2026-05-08 18:59 | 55.16676 | 10.61637 | 17261 ft | 238 kts | 65° |
| 2026-05-08 18:59 | 55.17365 | 10.64348 | 17267 ft | 250 kts | 64° |
| 2026-05-08 18:59 | 55.18147 | 10.67127 | 17274 ft | 261 kts | 63° |
| 2026-05-08 18:59 | 55.18963 | 10.70042 | 17273 ft | 271 kts | 64° |
| 2026-05-08 19:00 | 55.19785 | 10.73069 | 17273 ft | 278 kts | 64° |
| 2026-05-08 19:00 | 55.20622 | 10.76157 | 17277 ft | 282 kts | 64° |
| 2026-05-08 19:00 | 55.21472 | 10.79273 | 17280 ft | 285 kts | 64° |
| 2026-05-08 19:00 | 55.22329 | 10.82414 | 17282 ft | 287 kts | 64° |
| 2026-05-08 19:01 | 55.23190 | 10.85579 | 17279 ft | 288 kts | 64° |
| 2026-05-08 19:01 | 55.24053 | 10.88756 | 17273 ft | 289 kts | 64° |
| 2026-05-08 19:01 | 55.24917 | 10.91942 | 17276 ft | 289 kts | 64° |
| 2026-05-08 19:01 | 55.25780 | 10.95132 | 17276 ft | 289 kts | 64° |
| 2026-05-08 19:02 | 55.26645 | 10.98326 | 17231 ft | 291 kts | 64° |
| 2026-05-08 19:02 | 55.27506 | 11.01527 | 16967 ft | 297 kts | 64° |
| 2026-05-08 19:02 | 55.28397 | 11.04844 | 16705 ft | 304 kts | 65° |
| 2026-05-08 19:02 | 55.29300 | 11.08209 | 16447 ft | 305 kts | 65° |
| 2026-05-08 19:03 | 55.30211 | 11.11589 | 16215 ft | 305 kts | 65° |
| 2026-05-08 19:03 | 55.31118 | 11.14951 | 16010 ft | 304 kts | 65° |
| 2026-05-08 19:03 | 55.32021 | 11.18315 | 15805 ft | 303 kts | 65° |
| 2026-05-08 19:03 | 55.32915 | 11.21663 | 15600 ft | 302 kts | 65° |
| 2026-05-08 19:04 | 55.33807 | 11.24997 | 15401 ft | 301 kts | 65° |
| 2026-05-08 19:04 | 55.34696 | 11.28327 | 15163 ft | 301 kts | 65° |
| 2026-05-08 19:04 | 55.35584 | 11.31671 | 14917 ft | 301 kts | 66° |
| 2026-05-08 19:04 | 55.36472 | 11.35010 | 14629 ft | 302 kts | 66° |
| 2026-05-08 19:05 | 55.37348 | 11.38309 | 14346 ft | 301 kts | 66° |
| 2026-05-08 19:05 | 55.38233 | 11.41644 | 14053 ft | 301 kts | 66° |
| 2026-05-08 19:05 | 55.39224 | 11.44869 | 13701 ft | 300 kts | 55° |
| 2026-05-08 19:05 | 55.40604 | 11.47628 | 13321 ft | 301 kts | 47° |
| 2026-05-08 19:06 | 55.42082 | 11.50231 | 12949 ft | 300 kts | 46° |
| 2026-05-08 19:06 | 55.43571 | 11.52795 | 12540 ft | 300 kts | 46° |
| 2026-05-08 19:06 | 55.45085 | 11.55375 | 11883 ft | 304 kts | 46° |
| 2026-05-08 19:06 | 55.46571 | 11.57891 | 11240 ft | 292 kts | 46° |
| 2026-05-08 19:07 | 55.48029 | 11.60342 | 10608 ft | 288 kts | 46° |
| 2026-05-08 19:07 | 55.49474 | 11.62757 | 9952 ft | 285 kts | 46° |
| 2026-05-08 19:07 | 55.50900 | 11.65128 | 9339 ft | 272 kts | 46° |
| 2026-05-08 19:07 | 55.52249 | 11.67330 | 8739 ft | 258 kts | 45° |
| 2026-05-08 19:08 | 55.53560 | 11.69418 | 8170 ft | 250 kts | 45° |
| 2026-05-08 19:08 | 55.54781 | 11.71327 | 7621 ft | 224 kts | 45° |
| 2026-05-08 19:08 | 55.55959 | 11.73139 | 7093 ft | 224 kts | 45° |
| 2026-05-08 19:08 | 55.56981 | 11.75148 | 6579 ft | 217 kts | 64° |
| 2026-05-08 19:09 | 55.57688 | 11.77483 | 6043 ft | 214 kts | 65° |
| 2026-05-08 19:09 | 55.58395 | 11.79789 | 5510 ft | 212 kts | 65° |
| 2026-05-08 19:09 | 55.59087 | 11.82037 | 5035 ft | 209 kts | 65° |
| 2026-05-08 19:09 | 55.59779 | 11.84285 | 4564 ft | 207 kts | 65° |
| 2026-05-08 19:10 | 55.60462 | 11.86505 | 4090 ft | 205 kts | 65° |
| 2026-05-08 19:10 | 55.61138 | 11.88714 | 3643 ft | 203 kts | 65° |
| 2026-05-08 19:10 | 55.61809 | 11.90920 | 3257 ft | 205 kts | 66° |
| 2026-05-08 19:10 | 55.62380 | 11.93218 | 2917 ft | 202 kts | 76° |
| 2026-05-08 19:11 | 55.62613 | 11.95479 | 2600 ft | 170 kts | 85° |
| 2026-05-08 19:11 | 55.62655 | 11.97433 | 2340 ft | 151 kts | 96° |
| 2026-05-08 19:11 | 55.62437 | 11.99259 | 1847 ft | 152 kts | 108° |
| 2026-05-08 19:11 | 55.62081 | 12.00986 | 1475 ft | 146 kts | 114° |
| 2026-05-08 19:12 | 55.61636 | 12.02518 | 1309 ft | 136 kts | 118° |
| 2026-05-08 19:12 | 55.61202 | 12.03971 | 1112 ft | 134 kts | 116° |
| 2026-05-08 19:12 | 55.60795 | 12.05396 | 870 ft | 122 kts | 117° |
| 2026-05-08 19:12 | 55.60450 | 12.06629 | 773 ft | 103 kts | 118° |
| 2026-05-08 19:13 | 55.60095 | 12.07835 | 648 ft | 117 kts | 119° |
| 2026-05-08 19:13 | 55.59734 | 12.08940 | 556 ft | 90 kts | 119° |
| 2026-05-08 19:13 | 55.59453 | 12.10004 | 395 ft | 99 kts | 119° |
| 2026-05-08 19:13 | 55.59150 | 12.11051 | 253 ft | 91 kts | 120° |
| 2026-05-08 19:14 | 55.58892 | 12.11955 | 148 ft | 70 kts | 120° |
| 2026-05-08 19:14 | 55.58727 | 12.12533 | 140 ft | 25 kts | 118° |
| 2026-05-08 19:14 | 55.58669 | 12.12738 | 141 ft | 10 kts | 113° |
| 2026-05-08 19:14 | 55.58647 | 12.12828 | 142 ft | 3 kts | 114° |
| 2026-05-08 19:15 | 55.58645 | 12.12888 | 142 ft | 6 kts | 62° |
| 2026-05-08 19:15 | 55.58672 | 12.12930 | 142 ft | 4 kts | 33° |
| 2026-05-08 19:15 | 55.58702 | 12.12962 | 142 ft | 6 kts | 32° |
| 2026-05-08 19:15 | 55.58742 | 12.13006 | 143 ft | 7 kts | 31° |
| 2026-05-08 19:16 | 55.58786 | 12.13025 | 144 ft | 7 kts | 341° |
| 2026-05-08 19:16 | 55.58834 | 12.13004 | 143 ft | 7 kts | 12° |
| 2026-05-08 19:16 | 55.58884 | 12.13048 | 144 ft | 8 kts | 27° |
| 2026-05-08 19:16 | 55.58925 | 12.13014 | 144 ft | 9 kts | 296° |
| 2026-05-08 19:17 | 55.58951 | 12.12917 | 145 ft | 9 kts | 287° |
| 2026-05-08 19:17 | 55.58931 | 12.12852 | 144 ft | 5 kts | 161° |
| 2026-05-08 19:17 | 55.58923 | 12.12868 | 144 ft | 0 kts | 118° |